CheckWX is a tool to help pilots better visualize weather data.  It is not intended as a substitute for an official pre-flight weather briefing.

23:33:35 UTC

FKYS METAR
Yaoundé Nsimalen International Airport
Yaoundé, Cameroon
Current

34 mins ago

FKYS 182300Z 25003KT 200V290 8000 BKN010 FEW020CB 21/21 Q1017 NOSIG
Observed
Oct-18 @ 23:00 UTC
Wind
  • 250° at 3 KTS
Visibility
8,000 meters
Flight Rules
MVFR
Cloud Levels
  • Broken at 1,000' AGL
  • Few at 2,000' AGL
Temperature
21°C / 70°F
Dewpoint
21°C / 70°F
Humidity
100%
Altimeter
30.03" Hg
Pressure
1016.92 hPa
Previous

2 hours ago

FKYS 182200Z 25001KT 6000 FEW010 FEW020CB 21/21 Q1017 RETS NOSIG
Observed
Oct-18 @ 22:00 UTC
Wind
  • 250° at 1 KTS
Visibility
6,000 meters
Flight Rules
MVFR
Cloud Levels
  • Few at 1,000' AGL
  • Few at 2,000' AGL
Temperature
21°C / 70°F
Dewpoint
21°C / 70°F
Humidity
100%
Altimeter
30.03" Hg
Pressure
1016.92 hPa
Previous

3 hours ago

FKYS 182100Z VRB02KT 6000 TS BKN010 FEW020CB 21/21 Q1017 BECMG NSW
Observed
Oct-18 @ 21:00 UTC
Wind
  • Variable at 2 KTS
Visibility
6,000 meters
Flight Rules
MVFR
Conditions
Thunderstorm
Cloud Levels
  • Broken at 1,000' AGL
  • Few at 2,000' AGL
Temperature
21°C / 70°F
Dewpoint
21°C / 70°F
Humidity
100%
Altimeter
30.03" Hg
Pressure
1016.92 hPa